Aeroporto :
LOGIN :

Iscrizione | Disclaimer

   EN    FR    IT 

 










Sommario :    VFR   VFR Marginale   IFR   IFR Intensivo   IFR Molto Intensivo
Visibilità : 
Base nubi : 
>= 8 km
>= 3000ft
5 / 8 km
1000 / 3000 ft
1500m / 5 km
500 / 1000 ft
800 / 1500m
200 / 500 ft
< 800m
< 200 ft
Simboli :   Temporali  Nebbia  Neve Forte  Precipitazioni Forti  Vento > 20 kt
SIGMETs :   Varie  Temporali  Ghiacco  Turbolenza  Onda orograficha  Ceneri Vulcaniche






- Altitudine del aeroporto : 646 ft
- Codice IATA : VNO


EYVI - Vilnius int.

ULTIMO METAR :
  • 071050Z 21014G28KT 180V250 CAVOK 19/M03 Q1029 NOSIG

METARs OBSOLETI :
  • 071020Z 20016KT CAVOK 18/M03 Q1029 NOSIG
  • 070950Z 20014KT CAVOK 18/M04 Q1029 NOSIG
  • 070920Z 20014KT CAVOK 17/M05 Q1030 NOSIG
  • 070850Z 20016KT CAVOK 16/M05 Q1030 NOSIG
  • 070820Z 20014KT CAVOK 15/M06 Q1030 NOSIG

TAF TAF EYVI
Valido dal 07 a 06 ore il 08 a 06 ore UTC


070500Z 0706/0806 20012KT CAVOK
BECMG 0712/0714 26014G24KT
BECMG 0718/0720 32012KT



MetMap, La meteo Aeronautica in un colpo d'occhio ! - Copyright ORBIFLY Dicembre 2007 - Disclaimer

ORBIFLY MET'MAP TEAM :

Programmazione e sviluppo : Alexandra Zaïnal
Concezione : Baudouin d'Aumeries
Aiuto per la programmazione : Marc-Olivier Méhu
Supporto tecnico e logistico : Manuel Goepfert
Aiuto per la traduzione : Arnaldo La Scala

Contatto : metmap@orbifly.com




FONTI E CREDITI :

   NOAA